Time;durP1;ratioP1;P1;durP2;ratioP2;P2;SDS_P1;SDS_P2;PMS_P1;PMS_P2;Temp;Humidity;BMP_temperature;BMP_pressure;BME280_temperature;BME280_humidity;BME280_pressure;Samples;Min_cycle;Max_cycle;Signal;HPM_P1;HPM_P2
2023/09/07 00:00:57;;;;;;;19.50;6.70;;;;;;;19.63;49.12;99834.98;67872;1277;1016458;-64
2023/09/07 00:04:12;;;;;;;20.20;6.80;;;;;;;19.52;49.16;99831.59;67858;1277;1016397;-64
2023/09/07 00:07:15;;;;;;;19.90;6.70;;;;;;;19.61;49.10;99842.80;67846;1277;1016431;-64
2023/09/07 00:10:17;;;;;;;21.10;6.10;;;;;;;19.63;48.96;99835.34;67863;1277;1016461;-64
2023/09/07 00:13:20;;;;;;;19.80;6.20;;;;;;;19.54;48.97;99836.02;67889;1277;1016475;-64
2023/09/07 00:16:22;;;;;;;19.60;6.50;;;;;;;19.49;48.94;99838.19;67837;1277;1016261;-64
2023/09/07 00:19:25;;;;;;;22.00;6.20;;;;;;;19.53;48.79;99838.99;67833;1277;1016499;-64
2023/09/07 00:22:27;;;;;;;20.70;7.00;;;;;;;19.54;48.67;99841.33;67857;1277;1020184;-64
2023/09/07 00:25:30;;;;;;;23.00;6.80;;;;;;;19.60;48.68;99843.88;67872;1277;1016017;-64
2023/09/07 00:28:32;;;;;;;24.80;8.40;;;;;;;19.48;48.79;99844.71;67860;1277;1017609;-64
2023/09/07 00:31:34;;;;;;;22.60;6.70;;;;;;;19.47;48.75;99843.55;67802;1277;1016322;-64
2023/09/07 00:34:37;;;;;;;20.10;6.40;;;;;;;19.31;48.95;99844.81;67819;1277;1018546;-64
2023/09/07 00:37:39;;;;;;;21.30;6.30;;;;;;;19.24;48.92;99844.31;67830;1277;1016469;-65
2023/09/07 00:40:41;;;;;;;20.80;6.30;;;;;;;19.32;48.75;99841.58;67828;1277;1016432;-64
2023/09/07 00:43:44;;;;;;;20.30;6.30;;;;;;;19.34;48.70;99841.92;67867;1277;1016432;-64
2023/09/07 00:46:46;;;;;;;19.70;6.00;;;;;;;19.36;48.77;99844.75;67820;1277;1016692;-64
2023/09/07 00:49:48;;;;;;;19.90;6.40;;;;;;;19.33;48.65;99843.84;67821;1277;1017971;-64
2023/09/07 00:52:51;;;;;;;18.50;6.10;;;;;;;19.19;49.08;99843.63;67850;1277;1016049;-64
2023/09/07 00:55:53;;;;;;;19.40;6.20;;;;;;;19.26;48.97;99843.52;67840;1277;1016335;-63
2023/09/07 00:58:55;;;;;;;19.70;7.30;;;;;;;19.21;48.99;99845.85;67854;1277;1016726;-64
2023/09/07 01:01:58;;;;;;;20.10;5.90;;;;;;;19.18;48.96;99844.67;67841;1277;1016500;-64
2023/09/07 01:05:00;;;;;;;21.60;6.50;;;;;;;19.15;48.90;99843.84;67877;1277;1016470;-64
2023/09/07 01:08:03;;;;;;;21.50;6.40;;;;;;;19.07;49.02;99845.18;67814;1277;1016228;-64
2023/09/07 01:11:06;;;;;;;20.10;6.10;;;;;;;18.96;49.08;99843.77;67841;1277;1016422;-64
2023/09/07 01:14:08;;;;;;;18.60;6.10;;;;;;;18.95;48.81;99840.63;67812;1277;1016401;-64
2023/09/07 01:17:11;;;;;;;19.90;6.70;;;;;;;19.10;48.57;99845.49;67808;1277;1015958;-63
2023/09/07 01:20:16;;;;;;;23.70;7.00;;;;;;;19.09;48.69;99841.14;67868;1277;1016472;-64
2023/09/07 01:23:19;;;;;;;26.40;7.40;;;;;;;18.99;49.10;99838.88;67838;1277;1016406;-64
2023/09/07 01:26:21;;;;;;;22.30;7.30;;;;;;;19.08;49.17;99843.37;67789;1277;1016370;-64
2023/09/07 01:29:23;;;;;;;20.60;6.70;;;;;;;19.08;48.84;99840.36;67866;1277;1016106;-64
2023/09/07 01:32:26;;;;;;;;;;;;;;;18.96;48.87;99841.77;67877;1277;1016473;-64
2023/09/07 01:35:29;;;;;;;18.80;6.60;;;;;;;18.96;48.81;99839.48;67844;1277;1016572;-64
2023/09/07 01:38:31;;;;;;;21.40;7.00;;;;;;;19.03;48.55;99840.18;67839;1277;1016436;-64
2023/09/07 01:41:34;;;;;;;22.40;6.90;;;;;;;18.87;48.82;99838.60;67864;1277;1016518;-64
2023/09/07 01:44:38;;;;;;;22.60;7.20;;;;;;;19.01;48.41;99842.80;67844;1277;1016490;-64
2023/09/07 01:47:40;;;;;;;20.70;6.60;;;;;;;19.03;48.30;99839.81;67847;1277;1016346;-64
2023/09/07 01:50:42;;;;;;;21.30;6.70;;;;;;;19.12;47.92;99845.27;67837;1277;1016402;-64
2023/09/07 01:53:45;;;;;;;21.80;6.50;;;;;;;18.99;47.88;99843.88;67842;1277;1016161;-64
2023/09/07 01:56:47;;;;;;;19.10;6.20;;;;;;;18.89;47.88;99840.88;67839;1277;1018906;-64
2023/09/07 01:59:50;;;;;;;19.70;5.60;;;;;;;18.84;48.07;99838.62;67827;1277;1019224;-64
2023/09/07 02:02:52;;;;;;;21.20;6.40;;;;;;;18.59;48.76;99839.58;67876;1277;1016209;-64
2023/09/07 02:05:54;;;;;;;20.10;6.30;;;;;;;18.60;48.68;99836.07;67849;1277;1016374;-64
2023/09/07 02:08:57;;;;;;;20.30;5.70;;;;;;;18.44;48.86;99834.17;67848;1277;1016398;-64
2023/09/07 02:11:59;;;;;;;20.10;6.50;;;;;;;18.44;48.95;99832.57;67788;1277;1016295;-64
2023/09/07 02:15:02;;;;;;;20.10;6.40;;;;;;;18.31;49.30;99828.92;67809;1277;1016448;-64
2023/09/07 02:18:05;;;;;;;;;;;;;;;18.38;49.25;99829.52;67881;1277;1017171;-65
2023/09/07 02:21:08;;;;;;;23.30;6.70;;;;;;;18.30;49.21;99829.76;67848;1277;1016155;-64
2023/09/07 02:24:10;;;;;;;19.70;6.90;;;;;;;18.45;48.95;99826.45;67827;1277;1019618;-63
2023/09/07 02:27:12;;;;;;;21.30;7.70;;;;;;;18.35;48.81;99825.14;67895;1277;1016107;-64
2023/09/07 02:30:15;;;;;;;21.70;7.30;;;;;;;18.28;48.91;99829.73;67872;1277;1016098;-64
2023/09/07 02:33:17;;;;;;;21.10;6.30;;;;;;;18.21;48.98;99827.95;67878;1277;1016404;-64
2023/09/07 02:36:19;;;;;;;19.20;6.30;;;;;;;18.15;49.08;99830.86;67832;1277;1016297;-64
2023/09/07 02:39:25;;;;;;;21.60;6.70;;;;;;;18.05;49.34;99831.79;67851;1277;1016414;-64
2023/09/07 02:42:28;;;;;;;21.50;6.70;;;;;;;17.99;49.37;99829.94;67843;1277;1016974;-64
2023/09/07 02:45:30;;;;;;;22.80;7.10;;;;;;;17.98;48.97;99830.19;67850;1277;1015972;-64
2023/09/07 02:48:33;;;;;;;21.60;6.70;;;;;;;17.89;49.03;99826.98;67867;1277;1016423;-64
2023/09/07 02:51:35;;;;;;;;;;;;;;;17.78;49.53;99826.95;67857;1277;1016491;-65
2023/09/07 02:54:37;;;;;;;19.50;6.60;;;;;;;17.64;49.87;99832.05;67833;1277;1016468;-64
2023/09/07 02:57:40;;;;;;;19.70;6.60;;;;;;;17.57;49.78;99834.45;67822;1277;1016142;-64
2023/09/07 03:00:44;;;;;;;20.40;7.20;;;;;;;17.63;49.54;99833.86;67805;1277;1016468;-64
2023/09/07 03:03:46;;;;;;;21.30;6.90;;;;;;;17.75;49.43;99836.52;67847;1277;1016492;-65
2023/09/07 03:06:48;;;;;;;21.60;7.50;;;;;;;17.92;49.09;99830.65;67796;1277;1016154;-64
2023/09/07 03:09:51;;;;;;;24.10;8.00;;;;;;;17.95;49.14;99827.11;67869;1277;1016844;-64
2023/09/07 03:12:54;;;;;;;18.90;5.70;;;;;;;17.97;48.95;99828.39;67882;1277;1017038;-64
2023/09/07 03:15:57;;;;;;;20.40;6.50;;;;;;;17.96;48.86;99828.58;67839;1277;1016018;-64
2023/09/07 03:18:59;;;;;;;21.40;6.70;;;;;;;17.75;48.95;99829.58;67859;1277;1016247;-63
2023/09/07 03:22:03;;;;;;;21.10;6.80;;;;;;;17.69;48.91;99832.54;67877;1277;1016317;-64
2023/09/07 03:25:05;;;;;;;19.90;6.50;;;;;;;17.66;48.95;99837.91;67872;1277;1019078;-64
2023/09/07 03:28:08;;;;;;;22.20;6.90;;;;;;;17.73;48.75;99839.14;67903;1277;1015692;-64
2023/09/07 03:31:10;;;;;;;24.30;7.30;;;;;;;17.72;49.08;99841.70;67804;1277;1016315;-63
2023/09/07 03:34:13;;;;;;;21.70;6.80;;;;;;;17.86;49.15;99843.46;67824;1277;1016256;-64
2023/09/07 03:37:15;;;;;;;22.10;7.20;;;;;;;17.90;49.09;99837.38;67843;1277;1015809;-64
2023/09/07 03:40:17;;;;;;;21.70;6.50;;;;;;;17.88;49.03;99834.52;67860;1277;1016941;-64
2023/09/07 03:43:20;;;;;;;22.00;6.80;;;;;;;17.93;49.00;99833.80;67852;1277;1016378;-63
2023/09/07 03:46:22;;;;;;;21.10;7.30;;;;;;;17.94;48.67;99835.31;67853;1277;1016729;-64
2023/09/07 03:49:25;;;;;;;22.20;7.30;;;;;;;17.87;48.80;99840.02;67840;1277;1016407;-64
2023/09/07 03:52:27;;;;;;;;;;;;;;;17.79;48.81;99837.84;67847;1277;1016165;-64
2023/09/07 03:55:29;;;;;;;23.10;7.80;;;;;;;17.70;48.96;99847.86;67857;1277;1016446;-64
2023/09/07 03:58:32;;;;;;;22.40;7.50;;;;;;;17.67;48.83;99846.34;67879;1277;1016252;-62
2023/09/07 04:01:34;;;;;;;25.20;8.10;;;;;;;17.67;48.97;99843.98;67831;1277;1016900;-64
2023/09/07 04:04:36;;;;;;;21.80;7.30;;;;;;;17.61;49.02;99848.65;67820;1277;1016326;-64
2023/09/07 04:07:39;;;;;;;22.50;7.00;;;;;;;17.56;49.33;99851.22;67823;1277;1016443;-64
2023/09/07 04:10:41;;;;;;;21.30;6.70;;;;;;;17.61;49.40;99854.01;67826;1277;1016615;-64
2023/09/07 04:13:43;;;;;;;22.90;6.40;;;;;;;17.60;49.36;99857.79;67841;1277;1016384;-62
2023/09/07 04:16:46;;;;;;;19.80;6.20;;;;;;;17.64;49.26;99864.23;67883;1277;1015872;-62
2023/09/07 04:19:48;;;;;;;20.10;6.10;;;;;;;17.55;49.11;99864.73;67802;1277;1016288;-62
2023/09/07 04:22:50;;;;;;;21.70;6.50;;;;;;;17.59;49.43;99863.33;67820;1277;1016458;-61
2023/09/07 04:25:53;;;;;;;18.00;5.90;;;;;;;17.54;49.27;99863.38;67807;1277;1016394;-64
2023/09/07 04:28:55;;;;;;;20.40;6.20;;;;;;;17.46;49.46;99864.41;67860;1277;1018736;-63
2023/09/07 04:31:57;;;;;;;17.80;5.90;;;;;;;17.48;49.46;99860.39;67882;1277;1016143;-62
2023/09/07 04:35:01;;;;;;;20.00;6.30;;;;;;;17.48;49.60;99866.11;67850;1277;1016468;-63
2023/09/07 04:38:03;;;;;;;20.30;6.30;;;;;;;17.57;49.43;99868.45;67886;1277;1017226;-62
2023/09/07 04:41:06;;;;;;;21.40;6.70;;;;;;;17.75;49.39;99871.55;67911;1277;1018722;-63
2023/09/07 04:44:08;;;;;;;;;;;;;;;17.96;49.19;99872.81;67826;1277;1016416;-62
2023/09/07 04:47:11;;;;;;;25.80;8.30;;;;;;;18.02;49.38;99870.42;67805;1277;1016524;-62
2023/09/07 04:50:14;;;;;;;26.10;8.50;;;;;;;18.17;49.28;99876.59;67812;1254;1016454;-63
2023/09/07 04:53:16;;;;;;;24.80;7.90;;;;;;;18.37;49.18;99875.55;67864;1277;1016426;-62
2023/09/07 04:56:20;;;;;;;22.10;7.00;;;;;;;18.49;49.21;99876.05;67827;1277;1016371;-63
2023/09/07 04:59:22;;;;;;;23.20;7.70;;;;;;;18.64;49.20;99877.20;67885;1277;1016153;-62
2023/09/07 05:02:25;;;;;;;23.10;7.40;;;;;;;18.67;49.27;99876.80;67832;1277;1017339;-63
2023/09/07 05:05:27;;;;;;;23.80;7.60;;;;;;;18.94;49.21;99875.62;67881;1277;1016644;-62
2023/09/07 05:08:30;;;;;;;24.20;7.30;;;;;;;19.05;49.38;99876.51;67884;1277;1016422;-62
2023/09/07 05:11:34;;;;;;;23.40;8.10;;;;;;;19.43;48.98;99880.77;67884;1277;1018241;-63
2023/09/07 05:14:37;;;;;;;22.90;7.30;;;;;;;19.67;48.70;99885.39;67837;1277;1016370;-62
2023/09/07 05:17:39;;;;;;;26.00;7.90;;;;;;;19.74;49.04;99886.23;67848;1277;1016186;-63
2023/09/07 05:20:41;;;;;;;24.60;7.30;;;;;;;19.99;48.84;99886.81;67826;1277;1016589;-63
2023/09/07 05:23:44;;;;;;;26.80;8.20;;;;;;;20.18;49.12;99883.35;67873;1277;1016438;-63
2023/09/07 05:26:46;;;;;;;24.50;8.00;;;;;;;20.46;48.82;99885.75;67829;1277;1016416;-63
2023/09/07 05:29:48;;;;;;;22.80;7.40;;;;;;;20.70;48.56;99888.34;67817;1277;1016715;-63
2023/09/07 05:32:51;;;;;;;21.30;7.40;;;;;;;20.94;48.40;99891.98;67823;1277;1016175;-63
2023/09/07 05:35:53;;;;;;;22.60;6.60;;;;;;;21.33;48.27;99893.68;67809;1277;1016482;-62
2023/09/07 05:38:55;;;;;;;21.00;6.90;;;;;;;21.75;48.00;99892.05;67837;1277;1016451;-63
2023/09/07 05:41:58;;;;;;;23.90;6.90;;;;;;;21.98;47.82;99895.35;67892;1277;1016300;-63
2023/09/07 05:45:00;;;;;;;21.50;7.20;;;;;;;22.18;47.94;99897.98;67875;1277;1016236;-63
2023/09/07 05:48:03;;;;;;;22.30;7.80;;;;;;;22.61;47.24;99896.35;67830;1277;1016417;-63
2023/09/07 05:51:05;;;;;;;24.10;7.10;;;;;;;22.72;47.07;99898.66;67840;1277;1016525;-62
2023/09/07 05:54:07;;;;;;;23.00;8.10;;;;;;;22.91;46.97;99895.23;67858;1277;1016250;-62
2023/09/07 05:57:10;;;;;;;27.90;8.50;;;;;;;23.03;47.00;99890.30;67845;1277;1016510;-62
2023/09/07 06:00:12;;;;;;;;;;;;;;;23.28;47.15;99888.54;67889;1277;1016634;-62
2023/09/07 06:03:15;;;;;;;25.00;9.50;;;;;;;23.61;47.10;99889.02;67834;1277;1016300;-63
2023/09/07 06:06:17;;;;;;;;;;;;;;;23.86;46.98;99889.63;67697;1277;1016494;-63
2023/09/07 06:09:19;;;;;;;27.40;9.40;;;;;;;23.98;47.09;99893.23;67828;1277;1016329;-63
2023/09/07 06:12:22;;;;;;;30.10;9.30;;;;;;;24.22;47.14;99892.45;67834;1277;1016407;-62
2023/09/07 06:15:24;;;;;;;;;;;;;;;24.49;47.47;99891.52;67866;1277;1016317;-63
2023/09/07 06:18:27;;;;;;;27.80;9.40;;;;;;;24.64;47.02;99892.15;67857;1277;1017096;-63
2023/09/07 06:21:29;;;;;;;;;;;;;;;24.75;46.89;99900.26;67864;1277;1016592;-63
2023/09/07 06:24:31;;;;;;;29.80;9.50;;;;;;;24.89;47.20;99900.83;67822;1277;1016478;-62
2023/09/07 06:27:34;;;;;;;;;;;;;;;25.16;47.17;99902.86;67840;1277;1016427;-62
2023/09/07 06:30:36;;;;;;;28.50;9.40;;;;;;;25.38;46.89;99908.09;67811;1277;1016457;-62
2023/09/07 06:33:38;;;;;;;29.20;10.00;;;;;;;25.51;46.90;99908.34;67877;1277;1016972;-62
2023/09/07 06:36:41;;;;;;;;;;;;;;;25.78;46.85;99917.41;67890;1277;1016265;-63
2023/09/07 06:39:43;;;;;;;25.60;9.10;;;;;;;26.11;46.46;99910.81;67856;1277;1016507;-63
2023/09/07 06:42:46;;;;;;;26.60;8.90;;;;;;;26.59;46.07;99905.27;67823;1277;1015811;-62
2023/09/07 06:45:48;;;;;;;;;;;;;;;26.82;45.92;99906.07;67839;1277;1016586;-62
2023/09/07 06:48:51;;;;;;;25.90;9.40;;;;;;;27.26;45.67;99909.56;67849;1277;1016154;-62
2023/09/07 06:51:53;;;;;;;;;;;;;;;27.54;45.13;99916.95;67817;1277;1016480;-63
2023/09/07 06:54:55;;;;;;;23.10;8.80;;;;;;;27.68;45.26;99914.97;67768;1277;1016142;-63
2023/09/07 06:58:00;;;;;;;23.40;8.60;;;;;;;27.85;45.20;99922.50;67810;1277;1016471;-63
2023/09/07 07:01:04;;;;;;;24.50;7.60;;;;;;;28.09;45.10;99921.58;67825;1277;1016522;-63
2023/09/07 07:04:07;;;;;;;27.70;8.20;;;;;;;28.25;45.00;99921.92;67798;1278;1016066;-62
2023/09/07 07:07:10;;;;;;;23.40;8.50;;;;;;;28.58;44.87;99922.50;67708;1278;1016290;-62
2023/09/07 07:10:12;;;;;;;23.00;7.80;;;;;;;28.66;44.34;99921.70;67722;1278;1016504;-62
2023/09/07 07:13:14;;;;;;;24.20;8.00;;;;;;;28.55;44.61;99925.70;67825;1278;1016887;-63
2023/09/07 07:16:17;;;;;;;24.60;8.00;;;;;;;28.85;44.66;99928.77;67767;1278;1017804;-62
2023/09/07 07:19:20;;;;;;;22.60;7.70;;;;;;;29.08;44.39;99930.63;67751;1278;1016559;-62
2023/09/07 07:22:22;;;;;;;23.60;7.30;;;;;;;29.35;44.10;99933.14;67751;1278;1016133;-62
2023/09/07 07:25:24;;;;;;;22.30;7.50;;;;;;;29.72;43.42;99931.54;67786;1278;1016386;-62
2023/09/07 07:28:27;;;;;;;23.80;7.60;;;;;;;30.08;42.68;99932.58;67792;1278;1016293;-62
2023/09/07 07:31:29;;;;;;;21.10;6.90;;;;;;;30.38;41.93;99931.18;67774;1278;1016308;-62
2023/09/07 07:34:32;;;;;;;20.30;6.70;;;;;;;30.57;42.03;99930.22;67714;1278;1018951;-63
2023/09/07 07:37:34;;;;;;;25.00;7.60;;;;;;;30.85;41.46;99927.73;67792;1278;1015768;-62
2023/09/07 07:40:37;;;;;;;23.30;6.60;;;;;;;31.24;41.38;99923.19;67789;1278;1016644;-62
2023/09/07 07:43:39;;;;;;;22.00;6.50;;;;;;;31.71;40.91;99919.44;67764;1278;1015963;-63
2023/09/07 07:46:42;;;;;;;22.20;6.70;;;;;;;32.13;39.95;99917.96;67698;1278;1016275;-62
2023/09/07 07:49:44;;;;;;;21.10;6.40;;;;;;;32.26;39.36;99918.78;67698;1278;1016911;-62
2023/09/07 07:52:46;;;;;;;20.10;6.30;;;;;;;32.36;39.15;99918.27;67746;1278;1016542;-61
2023/09/07 07:55:49;;;;;;;21.60;6.50;;;;;;;32.52;39.22;99915.79;67775;1278;1016435;-63
2023/09/07 07:58:51;;;;;;;18.50;5.80;;;;;;;32.77;39.20;99916.65;67808;1278;1016814;-62
2023/09/07 08:01:54;;;;;;;19.70;6.10;;;;;;;32.95;37.81;99919.40;67710;1278;1016477;-63
2023/09/07 08:04:56;;;;;;;20.70;6.20;;;;;;;33.19;37.87;99918.83;67745;1277;1017172;-62
2023/09/07 08:07:59;;;;;;;18.40;5.90;;;;;;;33.42;36.96;99920.20;67874;1277;1016877;-63
2023/09/07 08:11:05;;;;;;;21.40;5.70;;;;;;;33.63;36.68;99915.10;67850;1277;1016877;-62
2023/09/07 08:14:07;;;;;;;18.10;5.80;;;;;;;33.84;36.28;99911.98;67839;1277;1016346;-63
2023/09/07 08:17:10;;;;;;;18.80;6.10;;;;;;;33.98;35.70;99914.92;67751;1278;1015891;-62
2023/09/07 08:20:12;;;;;;;19.10;5.60;;;;;;;34.19;35.99;99917.11;67734;1278;1016246;-63
2023/09/07 08:23:15;;;;;;;17.70;5.20;;;;;;;34.41;35.43;99919.05;67814;1277;1016749;-63
2023/09/07 08:26:17;;;;;;;16.90;5.20;;;;;;;34.51;35.22;99920.40;67890;1277;1016571;-62
2023/09/07 08:29:20;;;;;;;17.90;5.40;;;;;;;34.38;34.97;99921.45;67845;1277;1016270;-62
2023/09/07 08:32:23;;;;;;;18.50;5.60;;;;;;;34.50;34.90;99918.69;67831;1277;1016135;-63
2023/09/07 08:35:27;;;;;;;17.60;5.10;;;;;;;34.63;34.56;99921.17;67877;1277;1016233;-62
2023/09/07 08:38:30;;;;;;;16.60;5.30;;;;;;;34.77;34.30;99919.27;67806;1277;1016446;-63
2023/09/07 08:41:33;;;;;;;17.80;5.60;;;;;;;34.59;33.61;99919.33;67798;1277;1016254;-65
2023/09/07 08:44:35;;;;;;;16.70;5.40;;;;;;;34.70;33.81;99916.49;67765;1278;1016469;-63
2023/09/07 08:47:37;;;;;;;17.20;5.10;;;;;;;34.73;33.31;99917.54;67803;1278;1016411;-64
2023/09/07 08:50:40;;;;;;;18.50;5.70;;;;;;;34.87;33.30;99916.92;67767;1278;1016901;-64
2023/09/07 08:53:46;;;;;;;18.20;5.60;;;;;;;35.06;32.78;99913.83;67726;1278;1016816;-64
2023/09/07 08:56:48;;;;;;;17.10;5.10;;;;;;;35.09;32.25;99916.42;67773;1277;1016495;-64
2023/09/07 08:59:50;;;;;;;18.50;5.30;;;;;;;35.22;32.32;99916.88;67766;1278;1016442;-64
2023/09/07 09:02:54;;;;;;;16.30;5.00;;;;;;;35.17;31.10;99919.55;67749;1278;1016489;-64
2023/09/07 09:05:56;;;;;;;17.00;4.90;;;;;;;34.90;30.64;99918.17;67789;1278;1016496;-64
2023/09/07 09:08:58;;;;;;;17.20;4.90;;;;;;;34.77;32.13;99922.08;67787;1278;1016829;-64
2023/09/07 09:12:01;;;;;;;15.30;4.90;;;;;;;35.05;31.75;99923.20;67757;1278;1019526;-64
2023/09/07 09:15:03;;;;;;;15.50;4.40;;;;;;;35.10;30.81;99925.12;67767;1278;1016315;-64
2023/09/07 09:18:06;;;;;;;17.70;5.00;;;;;;;34.79;30.59;99926.55;67804;1278;1016428;-64
2023/09/07 09:21:08;;;;;;;15.70;4.70;;;;;;;35.05;31.28;99925.04;67787;1278;1016352;-63
2023/09/07 09:24:11;;;;;;;20.50;4.80;;;;;;;35.39;31.20;99920.73;67744;1278;1016282;-63
2023/09/07 09:27:13;;;;;;;14.00;4.40;;;;;;;35.48;30.95;99923.01;67773;1278;1016267;-64
2023/09/07 09:30:16;;;;;;;16.10;4.20;;;;;;;35.54;31.02;99924.36;67777;1278;1016576;-64
2023/09/07 09:33:18;;;;;;;17.90;4.90;;;;;;;35.51;29.75;99920.17;67798;1278;1016878;-64
2023/09/07 09:36:21;;;;;;;18.70;4.90;;;;;;;35.27;29.77;99915.44;67790;1278;1016198;-63
2023/09/07 09:39:23;;;;;;;13.60;4.50;;;;;;;35.17;29.98;99912.58;67725;1278;1016275;-64
2023/09/07 09:42:26;;;;;;;16.70;4.40;;;;;;;35.26;30.74;99918.42;67764;1278;1016691;-64
2023/09/07 09:45:28;;;;;;;14.30;4.50;;;;;;;35.59;30.40;99918.25;67792;1278;1016504;-64
2023/09/07 09:48:31;;;;;;;14.70;4.90;;;;;;;35.80;30.48;99913.80;67757;1278;1016055;-63
2023/09/07 09:51:33;;;;;;;19.20;4.40;;;;;;;36.02;30.22;99914.00;67764;1278;1016535;-63
2023/09/07 09:54:36;;;;;;;17.30;4.80;;;;;;;36.05;29.97;99913.09;67823;1278;1018605;-64
2023/09/07 09:57:38;;;;;;;16.80;4.80;;;;;;;36.34;30.18;99909.96;67814;1278;1017376;-64
2023/09/07 10:00:40;;;;;;;13.20;4.30;;;;;;;36.61;29.54;99907.00;67792;1278;1016810;-64
2023/09/07 10:03:45;;;;;;;12.20;4.30;;;;;;;36.88;29.55;99908.63;67711;1278;1016541;-64
2023/09/07 10:06:48;;;;;;;15.20;4.60;;;;;;;36.99;28.75;99904.06;67739;1278;1016435;-64
2023/09/07 10:09:50;;;;;;;15.40;4.60;;;;;;;36.89;28.89;99905.33;67815;1278;1017111;-64
2023/09/07 10:12:53;;;;;;;13.50;4.10;;;;;;;37.02;28.64;99901.92;67810;1278;1016295;-64
2023/09/07 10:15:55;;;;;;;13.20;4.20;;;;;;;37.07;28.14;99907.23;67795;1278;1016311;-63
2023/09/07 10:18:58;;;;;;;15.70;4.40;;;;;;;36.99;28.17;99906.51;67773;1278;1016097;-64
2023/09/07 10:22:00;;;;;;;14.30;4.20;;;;;;;37.05;28.09;99899.81;67763;1278;1016451;-63
2023/09/07 10:25:03;;;;;;;18.90;5.10;;;;;;;36.99;28.04;99901.05;67758;1278;1016782;-64
2023/09/07 10:28:05;;;;;;;15.20;4.30;;;;;;;36.89;27.90;99896.91;67714;1278;1015903;-64
2023/09/07 10:31:08;;;;;;;13.00;4.40;;;;;;;36.94;28.00;99902.09;67635;1278;1016375;-63
2023/09/07 10:34:12;;;;;;;14.90;4.40;;;;;;;36.88;28.06;99900.83;67790;1258;1016479;-64
2023/09/07 10:40:33;;;;;;;14.20;4.40;;;;;;;37.51;28.01;99892.70;67767;1278;1016446;-64
2023/09/07 10:50:12;;;;;;;17.00;5.50;;;;;;;37.69;27.28;99900.04;67718;1278;1016556;-64
2023/09/07 10:53:15;;;;;;;16.60;5.60;;;;;;;37.80;27.43;99898.17;67835;1278;1016505;-64
2023/09/07 10:56:17;;;;;;;17.30;5.40;;;;;;;37.48;27.22;99893.21;67825;1278;1016557;-64
2023/09/07 10:59:19;;;;;;;19.20;5.40;;;;;;;37.46;27.77;99896.48;67767;1278;1016494;-64
2023/09/07 11:02:22;;;;;;;17.00;5.40;;;;;;;37.57;27.42;99894.85;67754;1278;1016471;-64
2023/09/07 11:05:24;;;;;;;17.40;5.40;;;;;;;37.85;27.29;99894.98;67792;1278;1016843;-64
2023/09/07 11:08:27;;;;;;;20.20;6.20;;;;;;;38.13;27.62;99892.92;67826;1278;1016496;-64
2023/09/07 11:11:29;;;;;;;17.00;5.50;;;;;;;38.42;27.00;99887.63;67812;1278;1016401;-64
2023/09/07 11:14:31;;;;;;;17.30;5.60;;;;;;;38.55;27.19;99889.44;67833;1278;1016372;-64
2023/09/07 11:17:34;;;;;;;19.40;5.90;;;;;;;38.60;27.21;99888.79;67764;1278;1016393;-63
2023/09/07 11:20:36;;;;;;;23.40;7.30;;;;;;;38.46;27.01;99882.73;67824;1278;1016558;-64
2023/09/07 11:27:29;;;;;;;17.20;5.30;;;;;;;38.35;26.89;99876.11;67815;1278;1017306;-65
2023/09/07 11:30:32;;;;;;;18.00;5.80;;;;;;;38.41;27.21;99875.82;67800;1278;1016265;-64
2023/09/07 11:33:34;;;;;;;21.10;6.00;;;;;;;38.72;26.89;99875.12;67772;1278;1016461;-64
2023/09/07 11:36:37;;;;;;;15.30;5.10;;;;;;;39.04;26.60;99871.33;67801;1278;1016420;-64
2023/09/07 11:39:39;;;;;;;22.40;9.30;;;;;;;39.07;26.37;99870.77;67789;1278;1016488;-64
2023/09/07 11:42:41;;;;;;;21.50;6.50;;;;;;;39.27;26.02;99871.61;67820;1278;1017124;-64
2023/09/07 11:45:44;;;;;;;17.20;5.90;;;;;;;39.36;26.14;99868.95;67776;1278;1016506;-63
2023/09/07 11:52:24;;;;;;;13.90;4.60;;;;;;;39.52;25.96;99862.80;67747;1278;1017183;-65
2023/09/07 11:55:27;;;;;;;16.50;4.80;;;;;;;39.40;25.13;99863.95;67790;1278;1017238;-65
2023/09/07 11:58:29;;;;;;;15.60;4.70;;;;;;;39.09;25.21;99864.62;67825;1278;1016141;-64
2023/09/07 12:01:33;;;;;;;14.70;5.00;;;;;;;38.52;25.37;99865.66;67816;1278;1016309;-64
2023/09/07 12:04:37;;;;;;;17.20;5.10;;;;;;;37.75;25.71;99871.04;67807;1278;1016481;-65
2023/09/07 12:07:39;;;;;;;16.30;5.50;;;;;;;37.33;26.12;99869.84;67786;1278;1016497;-64
2023/09/07 12:10:42;;;;;;;14.50;4.40;;;;;;;36.75;26.27;99871.28;67791;1278;1018840;-64
2023/09/07 12:13:44;;;;;;;15.10;4.70;;;;;;;36.51;26.33;99864.91;67798;1278;1016426;-64
2023/09/07 12:16:47;;;;;;;14.40;4.50;;;;;;;36.92;26.78;99865.20;67811;1278;1018787;-64
2023/09/07 12:19:49;;;;;;;18.40;5.30;;;;;;;37.25;26.63;99860.88;67743;1278;1016895;-64
2023/09/07 12:22:51;;;;;;;18.60;7.00;;;;;;;37.65;26.60;99858.71;67799;1278;1015974;-64
2023/09/07 12:25:55;;;;;;;13.30;4.50;;;;;;;38.03;26.36;99857.48;67789;1278;1018700;-62
2023/09/07 12:28:57;;;;;;;15.80;5.00;;;;;;;38.14;25.71;99860.85;67771;1278;1016456;-64
2023/09/07 12:32:00;;;;;;;16.90;5.20;;;;;;;38.42;25.92;99861.81;67763;1278;1016275;-64
2023/09/07 12:35:21;;;;;;;15.90;6.10;;;;;;;38.21;25.67;99859.03;67825;1278;1016329;-64
2023/09/07 12:38:27;;;;;;;12.20;4.30;;;;;;;38.20;26.39;99856.27;67838;1278;1016341;-64
2023/09/07 12:41:30;;;;;;;16.50;5.40;;;;;;;38.57;26.13;99852.10;67812;1278;1015929;-63
2023/09/07 12:44:33;;;;;;;12.60;4.30;;;;;;;38.94;26.37;99850.69;67761;1278;1017425;-64
2023/09/07 12:47:35;;;;;;;13.50;4.20;;;;;;;39.18;25.86;99845.66;67832;1278;1019004;-64
2023/09/07 12:50:39;;;;;;;12.50;4.40;;;;;;;39.47;25.80;99843.88;67824;1278;1016313;-64
2023/09/07 12:53:41;;;;;;;12.60;4.10;;;;;;;39.59;24.98;99838.52;67804;1278;1016360;-64
2023/09/07 12:56:44;;;;;;;14.10;4.60;;;;;;;39.47;25.07;99834.48;67819;1278;1017854;-64
2023/09/07 12:59:47;;;;;;;16.70;4.50;;;;;;;39.61;24.89;99829.59;67788;1278;1016586;-64
2023/09/07 13:02:49;;;;;;;13.90;3.70;;;;;;;39.26;24.60;99829.95;67806;1278;1016264;-64
2023/09/07 13:05:51;;;;;;;15.20;4.20;;;;;;;39.04;24.94;99825.15;67848;1278;1017171;-64
2023/09/07 13:08:54;;;;;;;16.20;4.40;;;;;;;39.00;25.47;99827.20;67819;1278;1016033;-64
2023/09/07 13:11:56;;;;;;;15.90;4.40;;;;;;;38.79;24.80;99829.62;67791;1278;1016453;-64
2023/09/07 13:14:59;;;;;;;11.60;3.70;;;;;;;38.30;25.14;99830.86;67761;1278;1016452;-64
2023/09/07 13:18:01;;;;;;;13.80;3.90;;;;;;;38.08;25.22;99822.58;67821;1278;1019623;-63
2023/09/07 13:21:04;;;;;;;12.20;4.00;;;;;;;38.11;25.36;99821.36;67814;1278;1016367;-64
2023/09/07 13:24:06;;;;;;;21.50;7.90;;;;;;;37.84;25.54;99820.19;67765;1278;1016422;-64
2023/09/07 13:27:09;;;;;;;20.90;5.80;;;;;;;38.14;25.62;99821.74;67803;1278;1016333;-64
2023/09/07 13:30:12;;;;;;;18.40;5.20;;;;;;;38.42;25.73;99817.20;67823;1278;1016352;-64
2023/09/07 13:33:15;;;;;;;12.70;4.00;;;;;;;38.64;25.48;99816.80;67770;1278;1016489;-64
2023/09/07 13:36:17;;;;;;;16.60;5.40;;;;;;;38.78;25.44;99817.73;67798;1278;1016926;-64
2023/09/07 13:39:19;;;;;;;16.90;4.30;;;;;;;38.59;25.17;99819.19;67818;1278;1016347;-64
2023/09/07 13:42:22;;;;;;;10.40;3.40;;;;;;;38.46;24.86;99815.07;67809;1278;1016395;-64
2023/09/07 13:45:24;;;;;;;14.30;4.40;;;;;;;38.46;25.21;99809.91;67818;1278;1016455;-64
2023/09/07 13:48:26;;;;;;;22.10;8.80;;;;;;;38.69;25.43;99807.50;67781;1278;1016720;-64
2023/09/07 13:51:31;;;;;;;15.50;3.90;;;;;;;38.61;25.17;99808.24;67785;1278;1017175;-64
2023/09/07 13:54:34;;;;;;;14.70;3.80;;;;;;;38.47;25.11;99805.73;67795;1278;1016960;-64
2023/09/07 13:57:36;;;;;;;11.40;4.10;;;;;;;38.41;25.28;99801.86;67847;1278;1016515;-64
2023/09/07 14:00:38;;;;;;;17.60;5.20;;;;;;;38.54;25.14;99801.91;67830;1278;1018931;-64
2023/09/07 14:03:41;;;;;;;18.30;5.90;;;;;;;38.14;25.22;99797.58;67788;1278;1016454;-64
2023/09/07 14:06:43;;;;;;;20.00;7.50;;;;;;;38.13;25.41;99791.32;67767;1278;1016053;-64
2023/09/07 14:09:46;;;;;;;10.70;3.40;;;;;;;38.20;25.28;99787.05;67817;1278;1016445;-64